sensor_id;sensor_type;location;lat;lon;timestamp;P1;durP1;ratioP1;P2;durP2;ratioP2
54743;SDS011;40639;53.170;6.728;2023-03-11T00:00:23;5.72;;;1.23;;
54743;SDS011;40639;53.170;6.728;2023-03-11T00:02:50;3.03;;;1.17;;
54743;SDS011;40639;53.170;6.728;2023-03-11T00:05:17;4.90;;;1.17;;
54743;SDS011;40639;53.170;6.728;2023-03-11T00:07:44;7.82;;;1.05;;
54743;SDS011;40639;53.170;6.728;2023-03-11T00:13:03;4.47;;;0.90;;
54743;SDS011;40639;53.170;6.728;2023-03-11T00:15:29;3.92;;;0.65;;
54743;SDS011;40639;53.170;6.728;2023-03-11T00:17:56;3.13;;;1.00;;
54743;SDS011;40639;53.170;6.728;2023-03-11T00:20:23;1.80;;;0.70;;
54743;SDS011;40639;53.170;6.728;2023-03-11T00:22:50;2.58;;;0.60;;
54743;SDS011;40639;53.170;6.728;2023-03-11T00:25:16;5.32;;;1.02;;
54743;SDS011;40639;53.170;6.728;2023-03-11T00:27:43;5.68;;;1.25;;
54743;SDS011;40639;53.170;6.728;2023-03-11T00:32:35;2.25;;;0.55;;
54743;SDS011;40639;53.170;6.728;2023-03-11T00:37:27;4.60;;;0.60;;
54743;SDS011;40639;53.170;6.728;2023-03-11T00:42:19;3.05;;;0.80;;
54743;SDS011;40639;53.170;6.728;2023-03-11T00:44:45;3.92;;;0.80;;
54743;SDS011;40639;53.170;6.728;2023-03-11T00:47:11;3.60;;;0.93;;
54743;SDS011;40639;53.170;6.728;2023-03-11T00:49:37;4.80;;;0.63;;
54743;SDS011;40639;53.170;6.728;2023-03-11T00:52:03;4.32;;;0.60;;
54743;SDS011;40639;53.170;6.728;2023-03-11T00:54:29;2.95;;;0.60;;
54743;SDS011;40639;53.170;6.728;2023-03-11T00:56:56;2.90;;;0.60;;
54743;SDS011;40639;53.170;6.728;2023-03-11T01:01:48;1.45;;;0.90;;
54743;SDS011;40639;53.170;6.728;2023-03-11T01:04:14;3.28;;;0.50;;
54743;SDS011;40639;53.170;6.728;2023-03-11T01:06:40;3.22;;;0.65;;
54743;SDS011;40639;53.170;6.728;2023-03-11T01:09:06;4.00;;;0.75;;
54743;SDS011;40639;53.170;6.728;2023-03-11T01:11:32;1.52;;;0.55;;
54743;SDS011;40639;53.170;6.728;2023-03-11T01:16:24;2.43;;;0.60;;
54743;SDS011;40639;53.170;6.728;2023-03-11T01:21:16;1.05;;;0.50;;
54743;SDS011;40639;53.170;6.728;2023-03-11T01:23:42;2.67;;;0.55;;
54743;SDS011;40639;53.170;6.728;2023-03-11T01:26:08;3.35;;;0.65;;
54743;SDS011;40639;53.170;6.728;2023-03-11T01:28:34;1.98;;;0.43;;
54743;SDS011;40639;53.170;6.728;2023-03-11T01:31:00;0.98;;;0.60;;
54743;SDS011;40639;53.170;6.728;2023-03-11T01:33:26;1.55;;;0.60;;
54743;SDS011;40639;53.170;6.728;2023-03-11T01:35:53;5.32;;;0.80;;
54743;SDS011;40639;53.170;6.728;2023-03-11T01:38:19;2.97;;;0.70;;
54743;SDS011;40639;53.170;6.728;2023-03-11T01:40:46;2.90;;;0.60;;
54743;SDS011;40639;53.170;6.728;2023-03-11T01:48:26;1.45;;;0.50;;
54743;SDS011;40639;53.170;6.728;2023-03-11T01:50:52;4.60;;;0.95;;
54743;SDS011;40639;53.170;6.728;2023-03-11T01:53:18;1.77;;;0.70;;
54743;SDS011;40639;53.170;6.728;2023-03-11T01:55:44;5.22;;;0.77;;
54743;SDS011;40639;53.170;6.728;2023-03-11T01:58:13;1.58;;;0.80;;
54743;SDS011;40639;53.170;6.728;2023-03-11T02:00:41;1.10;;;0.40;;
54743;SDS011;40639;53.170;6.728;2023-03-11T02:03:08;1.92;;;0.70;;
54743;SDS011;40639;53.170;6.728;2023-03-11T02:05:35;6.22;;;1.15;;
54743;SDS011;40639;53.170;6.728;2023-03-11T02:08:02;1.30;;;0.57;;
54743;SDS011;40639;53.170;6.728;2023-03-11T02:10:28;3.15;;;0.63;;
54743;SDS011;40639;53.170;6.728;2023-03-11T02:12:55;1.05;;;0.40;;
54743;SDS011;40639;53.170;6.728;2023-03-11T02:15:22;3.38;;;0.60;;
54743;SDS011;40639;53.170;6.728;2023-03-11T02:17:48;2.30;;;0.40;;
54743;SDS011;40639;53.170;6.728;2023-03-11T02:20:26;2.10;;;0.50;;
54743;SDS011;40639;53.170;6.728;2023-03-11T02:22:54;2.15;;;0.52;;
54743;SDS011;40639;53.170;6.728;2023-03-11T02:28:07;1.77;;;0.47;;
54743;SDS011;40639;53.170;6.728;2023-03-11T02:30:35;2.95;;;0.55;;
54743;SDS011;40639;53.170;6.728;2023-03-11T02:33:01;0.73;;;0.20;;
54743;SDS011;40639;53.170;6.728;2023-03-11T02:35:28;3.85;;;1.08;;
54743;SDS011;40639;53.170;6.728;2023-03-11T02:37:55;1.27;;;0.40;;
54743;SDS011;40639;53.170;6.728;2023-03-11T02:42:51;0.77;;;0.28;;
54743;SDS011;40639;53.170;6.728;2023-03-11T02:45:19;1.35;;;0.60;;
54743;SDS011;40639;53.170;6.728;2023-03-11T02:47:46;1.00;;;0.30;;
54743;SDS011;40639;53.170;6.728;2023-03-11T02:50:14;3.55;;;0.47;;
54743;SDS011;40639;53.170;6.728;2023-03-11T02:52:40;1.90;;;0.30;;
54743;SDS011;40639;53.170;6.728;2023-03-11T02:55:07;2.60;;;0.30;;
54743;SDS011;40639;53.170;6.728;2023-03-11T02:57:34;1.75;;;0.40;;
54743;SDS011;40639;53.170;6.728;2023-03-11T03:00:00;1.02;;;0.32;;
54743;SDS011;40639;53.170;6.728;2023-03-11T03:02:35;3.60;;;0.57;;
54743;SDS011;40639;53.170;6.728;2023-03-11T03:05:01;2.10;;;0.40;;
54743;SDS011;40639;53.170;6.728;2023-03-11T03:07:27;1.00;;;0.35;;
54743;SDS011;40639;53.170;6.728;2023-03-11T03:09:54;1.55;;;0.40;;
54743;SDS011;40639;53.170;6.728;2023-03-11T03:12:20;2.83;;;0.50;;
54743;SDS011;40639;53.170;6.728;2023-03-11T03:14:46;1.20;;;0.57;;
54743;SDS011;40639;53.170;6.728;2023-03-11T03:17:12;2.28;;;0.47;;
54743;SDS011;40639;53.170;6.728;2023-03-11T03:19:38;4.40;;;0.40;;
54743;SDS011;40639;53.170;6.728;2023-03-11T03:22:04;5.47;;;0.50;;
54743;SDS011;40639;53.170;6.728;2023-03-11T03:24:31;1.75;;;0.40;;
54743;SDS011;40639;53.170;6.728;2023-03-11T03:29:23;2.30;;;0.50;;
54743;SDS011;40639;53.170;6.728;2023-03-11T03:31:49;1.92;;;0.70;;
54743;SDS011;40639;53.170;6.728;2023-03-11T03:36:41;2.25;;;0.63;;
54743;SDS011;40639;53.170;6.728;2023-03-11T03:39:07;2.00;;;0.50;;
54743;SDS011;40639;53.170;6.728;2023-03-11T03:41:33;2.50;;;0.70;;
54743;SDS011;40639;53.170;6.728;2023-03-11T03:43:59;1.70;;;0.30;;
54743;SDS011;40639;53.170;6.728;2023-03-11T03:46:25;3.67;;;0.80;;
54743;SDS011;40639;53.170;6.728;2023-03-11T03:48:51;1.27;;;0.40;;
54743;SDS011;40639;53.170;6.728;2023-03-11T03:51:17;0.98;;;0.30;;
54743;SDS011;40639;53.170;6.728;2023-03-11T03:53:43;1.60;;;0.80;;
54743;SDS011;40639;53.170;6.728;2023-03-11T03:56:14;3.53;;;0.50;;
54743;SDS011;40639;53.170;6.728;2023-03-11T03:58:41;1.35;;;0.50;;
54743;SDS011;40639;53.170;6.728;2023-03-11T04:01:07;1.38;;;0.45;;
54743;SDS011;40639;53.170;6.728;2023-03-11T04:03:33;3.25;;;0.90;;
54743;SDS011;40639;53.170;6.728;2023-03-11T04:06:10;1.75;;;0.63;;
54743;SDS011;40639;53.170;6.728;2023-03-11T04:08:40;2.83;;;0.55;;
54743;SDS011;40639;53.170;6.728;2023-03-11T04:11:06;3.17;;;0.88;;
54743;SDS011;40639;53.170;6.728;2023-03-11T04:13:32;3.92;;;0.75;;
54743;SDS011;40639;53.170;6.728;2023-03-11T04:15:58;3.47;;;0.60;;
54743;SDS011;40639;53.170;6.728;2023-03-11T04:18:25;4.20;;;0.77;;
54743;SDS011;40639;53.170;6.728;2023-03-11T04:23:17;2.67;;;0.57;;
54743;SDS011;40639;53.170;6.728;2023-03-11T04:28:09;2.13;;;0.60;;
54743;SDS011;40639;53.170;6.728;2023-03-11T04:30:35;5.75;;;1.30;;
54743;SDS011;40639;53.170;6.728;2023-03-11T04:35:27;5.07;;;2.08;;
54743;SDS011;40639;53.170;6.728;2023-03-11T04:37:53;4.45;;;2.42;;
54743;SDS011;40639;53.170;6.728;2023-03-11T04:40:20;2.63;;;1.27;;
54743;SDS011;40639;53.170;6.728;2023-03-11T04:42:46;6.40;;;1.65;;
54743;SDS011;40639;53.170;6.728;2023-03-11T04:45:12;5.45;;;1.58;;
54743;SDS011;40639;53.170;6.728;2023-03-11T04:47:38;3.10;;;1.00;;
54743;SDS011;40639;53.170;6.728;2023-03-11T04:50:04;2.55;;;0.75;;
54743;SDS011;40639;53.170;6.728;2023-03-11T04:52:30;3.17;;;0.70;;
54743;SDS011;40639;53.170;6.728;2023-03-11T04:54:56;1.60;;;0.70;;
54743;SDS011;40639;53.170;6.728;2023-03-11T04:57:22;2.63;;;0.70;;
54743;SDS011;40639;53.170;6.728;2023-03-11T04:59:49;2.00;;;0.70;;
54743;SDS011;40639;53.170;6.728;2023-03-11T05:02:15;3.88;;;0.70;;
54743;SDS011;40639;53.170;6.728;2023-03-11T05:07:07;4.65;;;0.60;;
54743;SDS011;40639;53.170;6.728;2023-03-11T05:11:59;1.40;;;0.70;;
54743;SDS011;40639;53.170;6.728;2023-03-11T05:14:25;2.70;;;0.93;;
54743;SDS011;40639;53.170;6.728;2023-03-11T05:16:51;3.78;;;0.75;;
54743;SDS011;40639;53.170;6.728;2023-03-11T05:21:56;3.38;;;0.88;;
54743;SDS011;40639;53.170;6.728;2023-03-11T05:24:22;1.58;;;0.63;;
54743;SDS011;40639;53.170;6.728;2023-03-11T05:26:50;3.97;;;0.73;;
54743;SDS011;40639;53.170;6.728;2023-03-11T05:29:16;1.75;;;0.75;;
54743;SDS011;40639;53.170;6.728;2023-03-11T05:31:42;4.93;;;1.40;;
54743;SDS011;40639;53.170;6.728;2023-03-11T05:36:34;2.83;;;0.98;;
54743;SDS011;40639;53.170;6.728;2023-03-11T05:39:00;3.55;;;1.10;;
54743;SDS011;40639;53.170;6.728;2023-03-11T05:41:26;2.67;;;1.02;;
54743;SDS011;40639;53.170;6.728;2023-03-11T05:43:52;3.40;;;0.90;;
54743;SDS011;40639;53.170;6.728;2023-03-11T05:46:18;2.00;;;0.70;;
54743;SDS011;40639;53.170;6.728;2023-03-11T05:48:45;4.55;;;0.90;;
54743;SDS011;40639;53.170;6.728;2023-03-11T05:51:11;3.90;;;0.82;;
54743;SDS011;40639;53.170;6.728;2023-03-11T05:53:37;5.45;;;1.00;;
54743;SDS011;40639;53.170;6.728;2023-03-11T05:56:04;3.40;;;1.15;;
54743;SDS011;40639;53.170;6.728;2023-03-11T05:58:30;3.72;;;1.05;;
54743;SDS011;40639;53.170;6.728;2023-03-11T06:00:57;1.58;;;0.70;;
54743;SDS011;40639;53.170;6.728;2023-03-11T06:03:25;1.40;;;0.77;;
54743;SDS011;40639;53.170;6.728;2023-03-11T06:05:51;4.15;;;1.13;;
54743;SDS011;40639;53.170;6.728;2023-03-11T06:08:18;2.25;;;0.80;;
54743;SDS011;40639;53.170;6.728;2023-03-11T06:10:44;3.05;;;0.90;;
54743;SDS011;40639;53.170;6.728;2023-03-11T06:13:10;2.53;;;1.15;;
54743;SDS011;40639;53.170;6.728;2023-03-11T06:15:37;2.63;;;1.05;;
54743;SDS011;40639;53.170;6.728;2023-03-11T06:18:03;3.33;;;1.35;;
54743;SDS011;40639;53.170;6.728;2023-03-11T06:20:29;2.83;;;1.23;;
54743;SDS011;40639;53.170;6.728;2023-03-11T06:22:56;3.70;;;1.00;;
54743;SDS011;40639;53.170;6.728;2023-03-11T06:25:23;2.53;;;0.90;;
54743;SDS011;40639;53.170;6.728;2023-03-11T06:27:50;2.50;;;0.90;;
54743;SDS011;40639;53.170;6.728;2023-03-11T06:30:17;2.15;;;0.70;;
54743;SDS011;40639;53.170;6.728;2023-03-11T06:32:47;4.47;;;1.38;;
54743;SDS011;40639;53.170;6.728;2023-03-11T06:35:13;5.30;;;0.90;;
54743;SDS011;40639;53.170;6.728;2023-03-11T06:37:39;4.07;;;1.27;;
54743;SDS011;40639;53.170;6.728;2023-03-11T06:40:06;3.30;;;1.02;;
54743;SDS011;40639;53.170;6.728;2023-03-11T06:42:33;1.60;;;1.08;;
54743;SDS011;40639;53.170;6.728;2023-03-11T06:45:00;2.75;;;0.75;;
54743;SDS011;40639;53.170;6.728;2023-03-11T06:47:26;2.45;;;0.90;;
54743;SDS011;40639;53.170;6.728;2023-03-11T06:49:52;3.10;;;0.93;;
54743;SDS011;40639;53.170;6.728;2023-03-11T06:52:19;1.20;;;0.63;;
54743;SDS011;40639;53.170;6.728;2023-03-11T06:54:45;6.45;;;0.80;;
54743;SDS011;40639;53.170;6.728;2023-03-11T06:57:11;2.25;;;0.73;;
54743;SDS011;40639;53.170;6.728;2023-03-11T06:59:37;2.72;;;1.13;;
54743;SDS011;40639;53.170;6.728;2023-03-11T07:02:04;2.83;;;0.98;;
54743;SDS011;40639;53.170;6.728;2023-03-11T07:04:31;7.15;;;1.17;;
54743;SDS011;40639;53.170;6.728;2023-03-11T07:06:57;2.25;;;1.17;;
54743;SDS011;40639;53.170;6.728;2023-03-11T07:09:23;3.40;;;1.10;;
54743;SDS011;40639;53.170;6.728;2023-03-11T07:11:51;4.15;;;1.60;;
54743;SDS011;40639;53.170;6.728;2023-03-11T07:14:17;3.03;;;1.13;;
54743;SDS011;40639;53.170;6.728;2023-03-11T07:16:44;3.72;;;0.88;;
54743;SDS011;40639;53.170;6.728;2023-03-11T07:19:11;2.78;;;0.80;;
54743;SDS011;40639;53.170;6.728;2023-03-11T07:21:37;4.00;;;1.08;;
54743;SDS011;40639;53.170;6.728;2023-03-11T07:24:03;2.67;;;1.15;;
54743;SDS011;40639;53.170;6.728;2023-03-11T07:26:30;4.90;;;1.00;;
54743;SDS011;40639;53.170;6.728;2023-03-11T07:28:57;3.75;;;1.20;;
54743;SDS011;40639;53.170;6.728;2023-03-11T07:31:24;3.03;;;0.88;;
54743;SDS011;40639;53.170;6.728;2023-03-11T07:33:51;3.75;;;0.88;;
54743;SDS011;40639;53.170;6.728;2023-03-11T07:36:18;2.47;;;0.98;;
54743;SDS011;40639;53.170;6.728;2023-03-11T07:38:45;4.43;;;1.13;;
54743;SDS011;40639;53.170;6.728;2023-03-11T07:41:11;5.88;;;1.00;;
54743;SDS011;40639;53.170;6.728;2023-03-11T07:43:38;4.63;;;1.30;;
54743;SDS011;40639;53.170;6.728;2023-03-11T07:48:31;3.80;;;1.10;;
54743;SDS011;40639;53.170;6.728;2023-03-11T07:50:59;6.43;;;0.88;;
54743;SDS011;40639;53.170;6.728;2023-03-11T07:53:25;2.58;;;1.02;;
54743;SDS011;40639;53.170;6.728;2023-03-11T07:55:55;4.50;;;1.42;;
54743;SDS011;40639;53.170;6.728;2023-03-11T07:58:21;2.58;;;0.90;;
54743;SDS011;40639;53.170;6.728;2023-03-11T08:00:47;5.03;;;1.48;;
54743;SDS011;40639;53.170;6.728;2023-03-11T08:03:13;1.73;;;1.05;;
54743;SDS011;40639;53.170;6.728;2023-03-11T08:05:39;2.40;;;1.20;;
54743;SDS011;40639;53.170;6.728;2023-03-11T08:08:06;3.63;;;1.17;;
54743;SDS011;40639;53.170;6.728;2023-03-11T08:10:32;2.53;;;1.33;;
54743;SDS011;40639;53.170;6.728;2023-03-11T08:13:00;3.53;;;1.48;;
54743;SDS011;40639;53.170;6.728;2023-03-11T08:17:52;4.78;;;1.30;;
54743;SDS011;40639;53.170;6.728;2023-03-11T08:20:19;6.25;;;1.17;;
54743;SDS011;40639;53.170;6.728;2023-03-11T08:22:45;3.17;;;1.40;;
54743;SDS011;40639;53.170;6.728;2023-03-11T08:25:11;4.25;;;1.52;;
54743;SDS011;40639;53.170;6.728;2023-03-11T08:27:37;4.75;;;2.33;;
54743;SDS011;40639;53.170;6.728;2023-03-11T08:30:04;6.15;;;1.25;;
54743;SDS011;40639;53.170;6.728;2023-03-11T08:32:31;3.65;;;1.20;;
54743;SDS011;40639;53.170;6.728;2023-03-11T08:34:57;3.25;;;1.38;;
54743;SDS011;40639;53.170;6.728;2023-03-11T08:37:23;3.05;;;1.35;;
54743;SDS011;40639;53.170;6.728;2023-03-11T08:39:49;3.17;;;1.05;;
54743;SDS011;40639;53.170;6.728;2023-03-11T08:42:16;3.55;;;1.15;;
54743;SDS011;40639;53.170;6.728;2023-03-11T08:44:42;3.20;;;1.30;;
54743;SDS011;40639;53.170;6.728;2023-03-11T08:47:09;10.95;;;2.00;;
54743;SDS011;40639;53.170;6.728;2023-03-11T08:49:36;3.97;;;1.40;;
54743;SDS011;40639;53.170;6.728;2023-03-11T08:52:02;5.03;;;1.50;;
54743;SDS011;40639;53.170;6.728;2023-03-11T08:54:29;6.28;;;2.00;;
54743;SDS011;40639;53.170;6.728;2023-03-11T08:56:55;2.83;;;1.45;;
54743;SDS011;40639;53.170;6.728;2023-03-11T08:59:26;2.80;;;1.00;;
54743;SDS011;40639;53.170;6.728;2023-03-11T09:01:53;3.40;;;1.25;;
54743;SDS011;40639;53.170;6.728;2023-03-11T09:04:19;3.40;;;1.15;;
54743;SDS011;40639;53.170;6.728;2023-03-11T09:06:45;3.80;;;1.30;;
54743;SDS011;40639;53.170;6.728;2023-03-11T09:09:13;3.90;;;1.45;;
54743;SDS011;40639;53.170;6.728;2023-03-11T09:11:46;2.05;;;1.15;;
54743;SDS011;40639;53.170;6.728;2023-03-11T09:14:13;1.52;;;1.00;;
54743;SDS011;40639;53.170;6.728;2023-03-11T09:16:39;4.10;;;1.33;;
54743;SDS011;40639;53.170;6.728;2023-03-11T09:19:06;4.60;;;1.30;;
54743;SDS011;40639;53.170;6.728;2023-03-11T09:21:33;4.75;;;1.40;;
54743;SDS011;40639;53.170;6.728;2023-03-11T09:23:59;3.35;;;1.17;;
54743;SDS011;40639;53.170;6.728;2023-03-11T09:26:26;3.13;;;1.50;;
54743;SDS011;40639;53.170;6.728;2023-03-11T09:28:52;8.80;;;1.90;;
54743;SDS011;40639;53.170;6.728;2023-03-11T09:31:18;4.18;;;1.30;;
54743;SDS011;40639;53.170;6.728;2023-03-11T09:33:44;2.70;;;1.10;;
54743;SDS011;40639;53.170;6.728;2023-03-11T09:36:12;2.40;;;1.08;;
54743;SDS011;40639;53.170;6.728;2023-03-11T09:38:38;5.75;;;1.13;;
54743;SDS011;40639;53.170;6.728;2023-03-11T09:41:07;2.58;;;1.15;;
54743;SDS011;40639;53.170;6.728;2023-03-11T09:46:36;1.88;;;0.82;;
54743;SDS011;40639;53.170;6.728;2023-03-11T09:52:43;3.05;;;0.90;;
54743;SDS011;40639;53.170;6.728;2023-03-11T09:58:17;4.82;;;1.77;;
54743;SDS011;40639;53.170;6.728;2023-03-11T10:00:47;3.17;;;1.10;;
54743;SDS011;40639;53.170;6.728;2023-03-11T10:03:24;3.53;;;0.90;;
54743;SDS011;40639;53.170;6.728;2023-03-11T10:14:24;4.43;;;0.98;;
54743;SDS011;40639;53.170;6.728;2023-03-11T10:22:27;6.60;;;0.93;;
54743;SDS011;40639;53.170;6.728;2023-03-11T10:27:54;1.85;;;1.00;;
54743;SDS011;40639;53.170;6.728;2023-03-11T10:30:32;3.63;;;1.10;;
54743;SDS011;40639;53.170;6.728;2023-03-11T10:33:01;4.22;;;1.13;;
54743;SDS011;40639;53.170;6.728;2023-03-11T10:35:37;4.97;;;0.80;;
54743;SDS011;40639;53.170;6.728;2023-03-11T10:38:06;5.10;;;1.10;;
54743;SDS011;40639;53.170;6.728;2023-03-11T10:40:35;2.40;;;0.98;;
54743;SDS011;40639;53.170;6.728;2023-03-11T10:43:03;3.92;;;1.05;;
54743;SDS011;40639;53.170;6.728;2023-03-11T10:45:40;7.82;;;1.10;;
54743;SDS011;40639;53.170;6.728;2023-03-11T10:48:12;2.83;;;0.95;;
54743;SDS011;40639;53.170;6.728;2023-03-11T10:51:01;2.63;;;0.82;;
54743;SDS011;40639;53.170;6.728;2023-03-11T10:53:28;2.33;;;0.90;;
54743;SDS011;40639;53.170;6.728;2023-03-11T10:55:56;2.47;;;0.90;;
54743;SDS011;40639;53.170;6.728;2023-03-11T10:58:23;5.78;;;0.88;;
54743;SDS011;40639;53.170;6.728;2023-03-11T11:01:00;6.55;;;1.10;;
54743;SDS011;40639;53.170;6.728;2023-03-11T11:05:56;3.38;;;0.77;;
54743;SDS011;40639;53.170;6.728;2023-03-11T11:08:22;5.55;;;1.30;;
54743;SDS011;40639;53.170;6.728;2023-03-11T11:10:53;2.95;;;0.90;;
54743;SDS011;40639;53.170;6.728;2023-03-11T11:13:23;2.10;;;0.80;;
54743;SDS011;40639;53.170;6.728;2023-03-11T11:15:54;3.38;;;0.70;;
54743;SDS011;40639;53.170;6.728;2023-03-11T11:18:26;3.72;;;1.10;;
54743;SDS011;40639;53.170;6.728;2023-03-11T11:26:23;2.97;;;0.80;;
54743;SDS011;40639;53.170;6.728;2023-03-11T11:29:23;1.17;;;0.80;;
54743;SDS011;40639;53.170;6.728;2023-03-11T11:32:18;2.50;;;0.85;;
54743;SDS011;40639;53.170;6.728;2023-03-11T11:41:32;3.75;;;1.20;;
54743;SDS011;40639;53.170;6.728;2023-03-11T11:43:52;3.45;;;1.08;;
54743;SDS011;40639;53.170;6.728;2023-03-11T11:51:25;3.20;;;0.87;;
54743;SDS011;40639;53.170;6.728;2023-03-11T11:56:22;3.03;;;1.10;;
54743;SDS011;40639;53.170;6.728;2023-03-11T11:58:48;3.72;;;1.00;;
54743;SDS011;40639;53.170;6.728;2023-03-11T12:01:18;4.88;;;1.02;;
54743;SDS011;40639;53.170;6.728;2023-03-11T12:08:41;4.05;;;1.10;;
54743;SDS011;40639;53.170;6.728;2023-03-11T12:11:13;2.17;;;0.90;;
54743;SDS011;40639;53.170;6.728;2023-03-11T12:19:15;6.25;;;1.23;;
54743;SDS011;40639;53.170;6.728;2023-03-11T12:21:53;3.00;;;1.33;;
54743;SDS011;40639;53.170;6.728;2023-03-11T12:26:51;6.30;;;1.20;;
54743;SDS011;40639;53.170;6.728;2023-03-11T12:31:44;2.95;;;1.10;;
54743;SDS011;40639;53.170;6.728;2023-03-11T12:34:11;2.58;;;1.08;;
54743;SDS011;40639;53.170;6.728;2023-03-11T12:36:41;4.38;;;1.02;;
54743;SDS011;40639;53.170;6.728;2023-03-11T12:42:37;5.07;;;1.30;;
54743;SDS011;40639;53.170;6.728;2023-03-11T12:44:43;3.13;;;1.10;;
54743;SDS011;40639;53.170;6.728;2023-03-11T12:49:48;3.25;;;1.60;;
54743;SDS011;40639;53.170;6.728;2023-03-11T12:52:17;3.95;;;0.90;;
54743;SDS011;40639;53.170;6.728;2023-03-11T12:54:45;2.58;;;0.88;;
54743;SDS011;40639;53.170;6.728;2023-03-11T13:02:44;4.20;;;0.85;;
54743;SDS011;40639;53.170;6.728;2023-03-11T13:12:53;5.18;;;1.10;;
54743;SDS011;40639;53.170;6.728;2023-03-11T13:18:31;6.97;;;1.00;;
54743;SDS011;40639;53.170;6.728;2023-03-11T13:20:40;2.75;;;0.90;;
54743;SDS011;40639;53.170;6.728;2023-03-11T13:25:40;3.92;;;0.70;;
54743;SDS011;40639;53.170;6.728;2023-03-11T13:31:02;3.38;;;0.73;;
54743;SDS011;40639;53.170;6.728;2023-03-11T13:33:33;1.98;;;0.70;;
54743;SDS011;40639;53.170;6.728;2023-03-11T13:36:17;2.70;;;0.65;;
54743;SDS011;40639;53.170;6.728;2023-03-11T13:41:13;2.83;;;0.63;;
54743;SDS011;40639;53.170;6.728;2023-03-11T13:43:44;2.70;;;0.55;;
54743;SDS011;40639;53.170;6.728;2023-03-11T13:46:57;2.90;;;0.63;;
54743;SDS011;40639;53.170;6.728;2023-03-11T13:49:13;3.47;;;0.55;;
54743;SDS011;40639;53.170;6.728;2023-03-11T13:51:42;3.00;;;0.77;;
54743;SDS011;40639;53.170;6.728;2023-03-11T13:56:38;2.95;;;1.10;;
54743;SDS011;40639;53.170;6.728;2023-03-11T13:59:15;1.58;;;0.68;;
54743;SDS011;40639;53.170;6.728;2023-03-11T14:01:47;3.85;;;0.93;;
54743;SDS011;40639;53.170;6.728;2023-03-11T14:04:14;3.08;;;0.70;;
54743;SDS011;40639;53.170;6.728;2023-03-11T14:06:41;2.42;;;0.88;;
54743;SDS011;40639;53.170;6.728;2023-03-11T14:09:14;4.40;;;0.80;;
54743;SDS011;40639;53.170;6.728;2023-03-11T14:11:43;3.10;;;0.90;;
54743;SDS011;40639;53.170;6.728;2023-03-11T14:14:23;2.25;;;0.60;;
54743;SDS011;40639;53.170;6.728;2023-03-11T14:16:52;2.55;;;0.68;;
54743;SDS011;40639;53.170;6.728;2023-03-11T14:19:19;2.80;;;0.55;;
54743;SDS011;40639;53.170;6.728;2023-03-11T14:21:45;1.60;;;0.60;;
54743;SDS011;40639;53.170;6.728;2023-03-11T14:26:41;1.00;;;0.63;;
54743;SDS011;40639;53.170;6.728;2023-03-11T14:29:14;2.45;;;0.50;;
54743;SDS011;40639;53.170;6.728;2023-03-11T14:31:42;3.42;;;0.90;;
54743;SDS011;40639;53.170;6.728;2023-03-11T14:34:18;1.98;;;0.60;;
54743;SDS011;40639;53.170;6.728;2023-03-11T14:41:58;1.85;;;0.73;;
54743;SDS011;40639;53.170;6.728;2023-03-11T14:44:26;1.23;;;0.60;;
54743;SDS011;40639;53.170;6.728;2023-03-11T14:46:58;1.88;;;0.75;;
54743;SDS011;40639;53.170;6.728;2023-03-11T14:49:29;1.95;;;0.65;;
54743;SDS011;40639;53.170;6.728;2023-03-11T14:52:00;4.15;;;0.88;;
54743;SDS011;40639;53.170;6.728;2023-03-11T14:54:28;2.33;;;0.70;;
54743;SDS011;40639;53.170;6.728;2023-03-11T14:57:06;2.20;;;0.68;;
54743;SDS011;40639;53.170;6.728;2023-03-11T14:59:35;2.13;;;0.90;;
54743;SDS011;40639;53.170;6.728;2023-03-11T15:02:05;4.75;;;0.75;;
54743;SDS011;40639;53.170;6.728;2023-03-11T15:04:35;1.67;;;0.50;;
54743;SDS011;40639;53.170;6.728;2023-03-11T15:07:02;0.73;;;0.40;;
54743;SDS011;40639;53.170;6.728;2023-03-11T15:09:29;2.28;;;0.60;;
54743;SDS011;40639;53.170;6.728;2023-03-11T15:11:59;2.00;;;0.77;;
54743;SDS011;40639;53.170;6.728;2023-03-11T15:16:52;2.03;;;0.65;;
54743;SDS011;40639;53.170;6.728;2023-03-11T15:19:20;4.25;;;0.90;;
54743;SDS011;40639;53.170;6.728;2023-03-11T15:21:47;3.55;;;0.82;;
54743;SDS011;40639;53.170;6.728;2023-03-11T15:24:17;1.83;;;0.82;;
54743;SDS011;40639;53.170;6.728;2023-03-11T15:29:48;2.47;;;0.70;;
54743;SDS011;40639;53.170;6.728;2023-03-11T15:32:22;6.00;;;0.77;;
54743;SDS011;40639;53.170;6.728;2023-03-11T15:43:24;3.72;;;1.08;;
54743;SDS011;40639;53.170;6.728;2023-03-11T15:46:01;2.83;;;0.80;;
54743;SDS011;40639;53.170;6.728;2023-03-11T15:48:27;3.40;;;0.80;;
54743;SDS011;40639;53.170;6.728;2023-03-11T15:50:56;4.07;;;0.70;;
54743;SDS011;40639;53.170;6.728;2023-03-11T15:53:23;2.10;;;0.80;;
54743;SDS011;40639;53.170;6.728;2023-03-11T15:55:50;1.60;;;0.82;;
54743;SDS011;40639;53.170;6.728;2023-03-11T15:58:17;4.20;;;0.95;;
54743;SDS011;40639;53.170;6.728;2023-03-11T16:00:51;1.58;;;0.70;;
54743;SDS011;40639;53.170;6.728;2023-03-11T16:03:17;1.88;;;0.73;;
54743;SDS011;40639;53.170;6.728;2023-03-11T16:05:44;3.33;;;0.50;;
54743;SDS011;40639;53.170;6.728;2023-03-11T16:08:10;2.55;;;0.43;;
54743;SDS011;40639;53.170;6.728;2023-03-11T16:10:36;4.32;;;0.50;;
54743;SDS011;40639;53.170;6.728;2023-03-11T16:13:02;1.75;;;0.52;;
54743;SDS011;40639;53.170;6.728;2023-03-11T16:15:32;1.33;;;0.50;;
54743;SDS011;40639;53.170;6.728;2023-03-11T16:18:00;2.05;;;1.20;;
54743;SDS011;40639;53.170;6.728;2023-03-11T16:20:34;1.90;;;0.85;;
54743;SDS011;40639;53.170;6.728;2023-03-11T16:23:01;1.25;;;0.68;;
54743;SDS011;40639;53.170;6.728;2023-03-11T16:25:38;3.80;;;0.50;;
54743;SDS011;40639;53.170;6.728;2023-03-11T16:28:04;2.58;;;0.50;;
54743;SDS011;40639;53.170;6.728;2023-03-11T16:30:31;2.33;;;0.63;;
54743;SDS011;40639;53.170;6.728;2023-03-11T16:32:57;3.28;;;0.82;;
54743;SDS011;40639;53.170;6.728;2023-03-11T16:35:24;1.95;;;0.70;;
54743;SDS011;40639;53.170;6.728;2023-03-11T16:37:50;0.98;;;0.40;;
54743;SDS011;40639;53.170;6.728;2023-03-11T16:40:18;0.95;;;0.38;;
54743;SDS011;40639;53.170;6.728;2023-03-11T16:42:45;1.55;;;0.30;;
54743;SDS011;40639;53.170;6.728;2023-03-11T16:45:11;0.82;;;0.50;;
54743;SDS011;40639;53.170;6.728;2023-03-11T16:47:37;0.80;;;0.32;;
54743;SDS011;40639;53.170;6.728;2023-03-11T16:50:04;2.20;;;0.32;;
54743;SDS011;40639;53.170;6.728;2023-03-11T16:52:30;0.98;;;0.30;;
54743;SDS011;40639;53.170;6.728;2023-03-11T16:54:56;4.25;;;0.60;;
54743;SDS011;40639;53.170;6.728;2023-03-11T16:57:22;3.30;;;0.70;;
54743;SDS011;40639;53.170;6.728;2023-03-11T16:59:48;1.67;;;0.93;;
54743;SDS011;40639;53.170;6.728;2023-03-11T17:02:16;2.40;;;1.08;;
54743;SDS011;40639;53.170;6.728;2023-03-11T17:04:42;1.60;;;0.80;;
54743;SDS011;40639;53.170;6.728;2023-03-11T17:07:08;2.95;;;0.73;;
54743;SDS011;40639;53.170;6.728;2023-03-11T17:09:35;3.15;;;1.10;;
54743;SDS011;40639;53.170;6.728;2023-03-11T17:12:02;2.40;;;1.60;;
54743;SDS011;40639;53.170;6.728;2023-03-11T17:14:28;2.20;;;0.90;;
54743;SDS011;40639;53.170;6.728;2023-03-11T17:16:56;2.97;;;1.10;;
54743;SDS011;40639;53.170;6.728;2023-03-11T17:19:22;2.15;;;0.93;;
54743;SDS011;40639;53.170;6.728;2023-03-11T17:21:48;2.55;;;1.05;;
54743;SDS011;40639;53.170;6.728;2023-03-11T17:24:15;4.20;;;1.38;;
54743;SDS011;40639;53.170;6.728;2023-03-11T17:26:41;1.63;;;0.70;;
54743;SDS011;40639;53.170;6.728;2023-03-11T17:29:07;4.35;;;1.15;;
54743;SDS011;40639;53.170;6.728;2023-03-11T17:31:33;1.92;;;1.00;;
54743;SDS011;40639;53.170;6.728;2023-03-11T17:33:59;5.82;;;1.65;;
54743;SDS011;40639;53.170;6.728;2023-03-11T17:36:27;3.15;;;1.02;;
54743;SDS011;40639;53.170;6.728;2023-03-11T17:38:53;3.90;;;0.90;;
54743;SDS011;40639;53.170;6.728;2023-03-11T17:41:20;6.07;;;0.82;;
54743;SDS011;40639;53.170;6.728;2023-03-11T17:43:46;1.83;;;1.20;;